createdAt,value
2022-10-06T00:01:17.197Z,98357.81
2022-10-06T00:03:46.250Z,98356.97
2022-10-06T00:06:17.133Z,98364.44
2022-10-06T00:08:46.266Z,98366.13
2022-10-06T00:11:16.250Z,98367.16
2022-10-06T00:13:44.456Z,98366.13
2022-10-06T00:16:17.566Z,98376.88
2022-10-06T00:18:45.682Z,98372.31
2022-10-06T00:21:13.922Z,98379.19
2022-10-06T00:23:41.856Z,98387.94
2022-10-06T00:26:17.287Z,98385.03
2022-10-06T00:28:49.141Z,98394.78
2022-10-06T00:31:19.546Z,98409.34
2022-10-06T00:33:49.671Z,98403.09
2022-10-06T00:36:17.770Z,98401.44
2022-10-06T00:38:45.972Z,98406.66
2022-10-06T00:41:16.750Z,98406.41
2022-10-06T00:43:47.200Z,98411.81
2022-10-06T00:46:46.500Z,98412.03
2022-10-06T00:49:35.094Z,98415.75
2022-10-06T00:52:08.888Z,98413.06
2022-10-06T00:54:36.934Z,98424.25
2022-10-06T00:57:06.187Z,98421.78
2022-10-06T00:59:35.500Z,98432.34
2022-10-06T01:02:09.078Z,98434.78
2022-10-06T01:04:41.851Z,98438.25
2022-10-06T01:07:10.160Z,98434.69
2022-10-06T01:09:38.664Z,98443.78
2022-10-06T01:12:08.434Z,98447.53
2022-10-06T01:14:39.303Z,98451.66
2022-10-06T01:17:16.772Z,98457.84
2022-10-06T01:20:11.474Z,98451.19
2022-10-06T01:22:48.782Z,98455.28
2022-10-06T01:25:18.882Z,98454.41
2022-10-06T01:27:53.713Z,98462.44
2022-10-06T01:30:39.140Z,98460.34
2022-10-06T01:33:07.322Z,98467.34
2022-10-06T01:35:35.190Z,98466.22
2022-10-06T01:38:02.959Z,98453.69
2022-10-06T01:40:31.762Z,98460.69
2022-10-06T01:43:02.059Z,98446.97
2022-10-06T01:45:30.495Z,98447.72
2022-10-06T01:47:58.563Z,98441.88
2022-10-06T01:50:26.653Z,98453.06
2022-10-06T01:52:57.415Z,98453.44
2022-10-06T01:55:25.966Z,98451.59
2022-10-06T01:57:54.790Z,98459.91
2022-10-06T02:00:22.848Z,98455.16
2022-10-06T02:02:50.886Z,98450.41
2022-10-06T02:05:18.811Z,98457.50
2022-10-06T02:07:50.954Z,98455.16
2022-10-06T02:10:18.740Z,98456.06
2022-10-06T02:12:54.079Z,98460.25
2022-10-06T02:15:23.535Z,98467.13
2022-10-06T02:17:52.889Z,98468.78
2022-10-06T02:20:21.307Z,98476.88
2022-10-06T02:22:50.864Z,98479.75
2022-10-06T02:25:18.797Z,98485.59
2022-10-06T02:27:46.669Z,98488.94
2022-10-06T02:30:15.964Z,98486.66
2022-10-06T02:32:45.075Z,98490.22
2022-10-06T02:35:13.065Z,98483.19
2022-10-06T02:37:42.204Z,98487.53
2022-10-06T02:40:12.172Z,98489.22
2022-10-06T02:42:39.939Z,98499.41
2022-10-06T02:45:09.184Z,98501.72
2022-10-06T02:47:38.423Z,98502.59
2022-10-06T02:50:07.883Z,98503.22
2022-10-06T02:52:41.146Z,98524.63
2022-10-06T02:55:10.270Z,98523.63
2022-10-06T02:57:38.263Z,98533.34
2022-10-06T03:00:08.633Z,98532.53
2022-10-06T03:02:36.777Z,98536.44
2022-10-06T03:05:05.927Z,98550.78
2022-10-06T03:07:34.923Z,98555.88
2022-10-06T03:10:02.815Z,98559.78
2022-10-06T03:12:31.005Z,98567.25
2022-10-06T03:14:59.082Z,98565.75
2022-10-06T03:17:27.102Z,98577.75
2022-10-06T03:19:58.035Z,98581.22
2022-10-06T03:22:26.658Z,98583.34
2022-10-06T03:24:56.846Z,98584.88
2022-10-06T03:27:25.506Z,98580.28
2022-10-06T03:29:56.791Z,98589.78
2022-10-06T03:32:26.364Z,98590.09
2022-10-06T03:34:54.206Z,98594.69
2022-10-06T03:37:22.913Z,98612.47
2022-10-06T03:39:51.705Z,98611.81
2022-10-06T03:42:19.991Z,98619.28
2022-10-06T03:44:48.313Z,98624.66
2022-10-06T03:47:17.416Z,98626.50
2022-10-06T03:49:46.619Z,98630.75
2022-10-06T03:52:16.321Z,98637.84
2022-10-06T03:54:44.154Z,98640.44
2022-10-06T03:57:12.100Z,98629.00
2022-10-06T03:59:40.125Z,98629.00
2022-10-06T04:02:08.075Z,98627.97
2022-10-06T04:04:38.574Z,98631.22
2022-10-06T04:07:11.223Z,98629.81
2022-10-06T04:09:39.874Z,98639.16
2022-10-06T04:12:09.294Z,98635.50
2022-10-06T04:14:38.754Z,98634.47
2022-10-06T04:17:08.177Z,98642.75
2022-10-06T04:19:37.860Z,98646.44
2022-10-06T04:22:05.654Z,98655.06
2022-10-06T04:24:34.610Z,98652.34
2022-10-06T04:27:21.874Z,98657.81
2022-10-06T04:29:59.213Z,98661.94
2022-10-06T04:32:27.417Z,98654.34
2022-10-06T04:34:55.791Z,98668.25
2022-10-06T04:37:25.179Z,98666.06
2022-10-06T04:39:53.013Z,98670.22
2022-10-06T04:42:20.901Z,98672.03
2022-10-06T04:44:48.657Z,98673.94
2022-10-06T04:47:16.462Z,98678.53
2022-10-06T04:49:44.667Z,98679.41
2022-10-06T04:52:12.772Z,98685.00
2022-10-06T04:54:42.097Z,98684.59
2022-10-06T04:57:10.382Z,98692.88
2022-10-06T04:59:59.490Z,98694.66
2022-10-06T05:02:32.182Z,98690.75
2022-10-06T05:04:59.947Z,98707.94
2022-10-06T05:07:28.389Z,98702.19
2022-10-06T05:09:58.277Z,98706.19
2022-10-06T05:12:26.287Z,98708.69
2022-10-06T05:14:54.597Z,98711.28
2022-10-06T05:17:22.710Z,98720.03
2022-10-06T05:19:52.279Z,98722.66
2022-10-06T05:22:20.661Z,98716.97
2022-10-06T05:24:53.650Z,98725.47
2022-10-06T05:27:21.619Z,98729.53
2022-10-06T05:29:49.425Z,98723.84
2022-10-06T05:32:17.190Z,98738.44
2022-10-06T05:34:44.969Z,98746.19
2022-10-06T05:37:12.735Z,98745.88
2022-10-06T05:39:40.637Z,98744.28
2022-10-06T05:42:08.412Z,98738.25
2022-10-06T05:44:36.135Z,98753.56
2022-10-06T05:47:08.659Z,98749.03
2022-10-06T05:49:36.420Z,98751.56
2022-10-06T05:52:05.561Z,98766.00
2022-10-06T05:54:36.236Z,98767.59
2022-10-06T05:57:04.268Z,98775.41
2022-10-06T05:59:34.326Z,98763.56
2022-10-06T06:02:04.004Z,98771.88
2022-10-06T06:04:36.049Z,98772.06
2022-10-06T06:07:03.806Z,98782.75
2022-10-06T06:09:31.669Z,98786.09
2022-10-06T06:12:01.310Z,98789.25
2022-10-06T06:15:16.954Z,98791.31
2022-10-06T06:17:50.139Z,98807.41
2022-10-06T06:20:17.893Z,98803.78
2022-10-06T06:22:45.691Z,98806.13
2022-10-06T06:25:13.462Z,98807.97
2022-10-06T06:27:43.583Z,98814.66
2022-10-06T06:30:12.248Z,98814.34
2022-10-06T06:32:40.714Z,98826.50
2022-10-06T06:35:09.456Z,98833.84
2022-10-06T06:37:38.147Z,98830.41
2022-10-06T06:40:07.364Z,98834.13
2022-10-06T06:42:38.339Z,98839.09
2022-10-06T06:45:26.526Z,98843.53
2022-10-06T06:48:02.364Z,98853.50
2022-10-06T06:50:31.736Z,98852.94
2022-10-06T06:53:02.485Z,98865.22
2022-10-06T06:55:31.774Z,98861.66
2022-10-06T06:58:00.726Z,98868.19
2022-10-06T07:00:32.537Z,98859.72
2022-10-06T07:03:03.343Z,98871.19
2022-10-06T07:05:32.917Z,98879.44
2022-10-06T07:08:00.667Z,98878.34
2022-10-06T07:10:28.395Z,98886.34
2022-10-06T07:12:56.480Z,98893.06
2022-10-06T07:15:43.162Z,98894.09
2022-10-06T07:18:29.952Z,98896.91
2022-10-06T07:21:16.567Z,98902.78
2022-10-06T07:24:05.346Z,98905.09
2022-10-06T07:26:33.164Z,98905.31
2022-10-06T07:29:00.929Z,98919.72
2022-10-06T07:31:33.359Z,98920.75
2022-10-06T07:34:04.134Z,98921.00
2022-10-06T07:36:32.565Z,98910.50
2022-10-06T07:39:01.222Z,98910.97
2022-10-06T07:41:31.589Z,98915.94
2022-10-06T07:44:07.961Z,98921.53
2022-10-06T07:46:36.835Z,98918.13
2022-10-06T07:49:12.108Z,98927.63
2022-10-06T07:51:40.018Z,98934.50
2022-10-06T07:54:08.924Z,98941.03
2022-10-06T07:56:59.494Z,98946.94
2022-10-06T07:59:27.258Z,98944.28
2022-10-06T08:01:55.022Z,98940.72
2022-10-06T08:04:22.821Z,98951.66
2022-10-06T08:06:50.660Z,98947.16
2022-10-06T08:09:18.477Z,98944.19
2022-10-06T08:11:47.402Z,98951.25
2022-10-06T08:14:15.209Z,98955.91
2022-10-06T08:16:42.938Z,98955.94
2022-10-06T08:19:11.703Z,98954.34
2022-10-06T08:21:39.824Z,98957.03
2022-10-06T08:24:07.586Z,98963.91
2022-10-06T08:26:35.967Z,98965.78
2022-10-06T08:29:03.825Z,98967.53
2022-10-06T08:31:32.740Z,98969.81
2022-10-06T08:34:01.482Z,98975.50
2022-10-06T08:36:31.862Z,98984.78
2022-10-06T08:39:01.314Z,98985.59
2022-10-06T08:41:48.524Z,98987.00
2022-10-06T08:45:03.069Z,98989.16
2022-10-06T08:47:35.952Z,98983.34
2022-10-06T08:50:11.285Z,98991.03
2022-10-06T08:52:58.538Z,98990.47
2022-10-06T08:56:08.452Z,98987.38
2022-10-06T08:59:05.384Z,98993.66
2022-10-06T09:01:51.359Z,99000.66
2022-10-06T09:04:30.554Z,99000.44
2022-10-06T09:07:21.282Z,99003.50
2022-10-06T09:10:07.531Z,98999.28
2022-10-06T09:13:00.951Z,99006.31
2022-10-06T09:15:39.060Z,99005.38
2022-10-06T09:18:13.392Z,99003.06
2022-10-06T09:21:11.643Z,99000.00
2022-10-06T09:23:48.898Z,99008.38
2022-10-06T09:26:43.358Z,99004.56
2022-10-06T09:29:12.110Z,99003.34
2022-10-06T09:31:43.505Z,99005.59
2022-10-06T09:34:36.139Z,99015.91
2022-10-06T09:37:09.072Z,99018.00
2022-10-06T09:39:49.559Z,99017.59
2022-10-06T09:42:23.067Z,99020.78
2022-10-06T09:44:51.319Z,99021.72
2022-10-06T09:47:34.801Z,99021.00
2022-10-06T09:50:12.524Z,99018.50
2022-10-06T09:53:05.714Z,99023.72
2022-10-06T09:55:39.519Z,99032.09
2022-10-06T09:58:26.208Z,99035.25
2022-10-06T10:00:57.038Z,99037.50
2022-10-06T10:03:26.799Z,99039.13
2022-10-06T10:05:55.377Z,99047.88
2022-10-06T10:08:30.909Z,99044.94
2022-10-06T10:11:47.333Z,99042.41
2022-10-06T10:14:19.679Z,99036.25
2022-10-06T10:16:53.088Z,99041.66
2022-10-06T10:19:33.656Z,99040.28
2022-10-06T10:22:02.840Z,99030.09
2022-10-06T10:25:22.516Z,99034.59
2022-10-06T10:28:15.743Z,99043.00
2022-10-06T10:31:11.327Z,99040.66
2022-10-06T10:34:28.540Z,99045.84
2022-10-06T10:37:04.450Z,99045.81
2022-10-06T10:39:42.110Z,99041.81
2022-10-06T10:42:28.734Z,99040.44
2022-10-06T10:45:19.142Z,99035.81
2022-10-06T10:47:49.204Z,99030.28
2022-10-06T10:50:33.942Z,99035.50
2022-10-06T10:53:23.978Z,99037.84
2022-10-06T10:55:53.470Z,99035.69
2022-10-06T10:58:41.833Z,99033.63
2022-10-06T11:01:41.753Z,99023.44
2022-10-06T11:04:13.499Z,99023.06
2022-10-06T11:07:27.051Z,99034.69
2022-10-06T11:10:15.997Z,99031.50
2022-10-06T11:13:33.207Z,99031.22
2022-10-06T11:16:30.477Z,99030.22
2022-10-06T11:19:09.136Z,99031.03
2022-10-06T11:22:00.401Z,99029.72
2022-10-06T11:24:36.540Z,99029.75
2022-10-06T11:27:18.410Z,99028.50
2022-10-06T11:30:13.927Z,99030.84
2022-10-06T11:33:10.609Z,99015.72
2022-10-06T11:35:43.227Z,99015.06
2022-10-06T11:38:42.434Z,99018.91
2022-10-06T11:41:26.114Z,99012.38
2022-10-06T11:44:06.615Z,99025.09
2022-10-06T11:47:10.341Z,99016.41
2022-10-06T11:49:52.350Z,99014.81
2022-10-06T11:52:20.051Z,99012.09
2022-10-06T11:54:52.442Z,99007.16
2022-10-06T11:57:25.095Z,99019.91
2022-10-06T12:00:17.477Z,99021.81
2022-10-06T12:02:47.037Z,99008.34
2022-10-06T12:08:02.535Z,99002.06
2022-10-06T12:10:30.165Z,99003.06
2022-10-06T12:14:01.531Z,98997.00
2022-10-06T12:19:40.458Z,98985.78
2022-10-06T12:22:31.334Z,98999.31
2022-10-06T12:25:31.673Z,98989.84
2022-10-06T12:28:27.402Z,98990.38
2022-10-06T12:31:37.420Z,98989.84
2022-10-06T12:34:40.262Z,98993.84
2022-10-06T12:37:22.208Z,98985.78
2022-10-06T12:39:49.891Z,98984.47
2022-10-06T12:42:25.064Z,98979.16
2022-10-06T12:44:53.547Z,98980.75
2022-10-06T12:47:37.540Z,98979.94
2022-10-06T12:50:22.789Z,98979.19
2022-10-06T12:53:05.546Z,98970.91
2022-10-06T12:55:49.990Z,98981.00
2022-10-06T12:58:29.035Z,98982.44
2022-10-06T13:01:09.635Z,98980.16
2022-10-06T13:03:38.957Z,98984.03
2022-10-06T13:06:09.082Z,98977.53
2022-10-06T13:08:39.801Z,98969.16
2022-10-06T13:11:24.408Z,98965.19
2022-10-06T13:14:08.026Z,98971.19
2022-10-06T13:16:40.977Z,98970.22
2022-10-06T13:19:29.359Z,98969.91
2022-10-06T13:21:57.288Z,98965.50
2022-10-06T13:24:27.453Z,98973.72
2022-10-06T13:26:56.216Z,98971.19
2022-10-06T13:29:27.509Z,98967.69
2022-10-06T13:31:56.791Z,98959.03
2022-10-06T13:34:38.525Z,98965.78
2022-10-06T13:37:06.512Z,98963.88
2022-10-06T13:39:34.532Z,98970.78
2022-10-06T13:42:10.688Z,98952.72
2022-10-06T13:45:04.989Z,98960.59
2022-10-06T13:47:34.581Z,98962.50
2022-10-06T13:50:18.787Z,98969.63
2022-10-06T13:52:48.995Z,98968.44
2022-10-06T13:55:26.114Z,98962.94
2022-10-06T13:58:05.170Z,98964.19
2022-10-06T14:01:01.013Z,98967.94
2022-10-06T14:06:22.289Z,98957.50
2022-10-06T14:08:54.664Z,98944.41
2022-10-06T14:11:29.037Z,98947.88
2022-10-06T14:14:01.295Z,98951.72
2022-10-06T14:16:30.153Z,98953.19
2022-10-06T14:19:01.271Z,98944.47
2022-10-06T14:21:32.051Z,98946.56
2022-10-06T14:24:04.846Z,98936.97
2022-10-06T14:26:37.775Z,98942.78
2022-10-06T14:29:05.594Z,98933.31
2022-10-06T14:31:34.099Z,98937.97
2022-10-06T14:34:04.124Z,98936.66
2022-10-06T14:36:37.241Z,98930.00
2022-10-06T14:39:07.759Z,98935.47
2022-10-06T14:41:35.577Z,98938.53
2022-10-06T14:44:10.269Z,98929.13
2022-10-06T14:46:39.975Z,98927.72
2022-10-06T14:49:10.574Z,98925.06
2022-10-06T14:51:40.363Z,98916.78
2022-10-06T14:54:10.227Z,98928.09
2022-10-06T14:56:39.768Z,98929.78
2022-10-06T14:59:10.684Z,98931.06
2022-10-06T15:01:42.736Z,98926.63
2022-10-06T15:04:14.505Z,98923.84
2022-10-06T15:07:01.949Z,98920.31
2022-10-06T15:09:31.202Z,98926.69
2022-10-06T15:12:00.255Z,98928.88
2022-10-06T15:14:29.626Z,98917.44
2022-10-06T15:17:00.861Z,98918.97
2022-10-06T15:19:28.676Z,98922.13
2022-10-06T15:21:56.553Z,98909.84
2022-10-06T15:24:24.284Z,98912.34
2022-10-06T15:27:10.430Z,98915.66
2022-10-06T15:29:38.222Z,98914.22
2022-10-06T15:32:06.831Z,98909.44
2022-10-06T15:34:37.629Z,98909.63
2022-10-06T15:37:06.114Z,98911.69
2022-10-06T15:39:36.713Z,98906.22
2022-10-06T15:42:04.820Z,98898.28
2022-10-06T15:44:34.874Z,98903.78
2022-10-06T15:47:05.986Z,98896.47
2022-10-06T15:49:38.264Z,98907.03
2022-10-06T15:52:06.723Z,98899.53
2022-10-06T15:54:38.601Z,98905.13
2022-10-06T15:57:12.159Z,98899.28
2022-10-06T15:59:41.769Z,98895.31
2022-10-06T16:02:15.961Z,98894.47
2022-10-06T16:04:45.698Z,98891.53
2022-10-06T16:07:20.775Z,98895.03
2022-10-06T16:09:55.425Z,98893.16
2022-10-06T16:12:29.150Z,98890.00
2022-10-06T16:15:00.851Z,98895.72
2022-10-06T16:17:29.310Z,98895.28
2022-10-06T16:20:01.003Z,98893.38
2022-10-06T16:22:32.627Z,98896.91
2022-10-06T16:25:01.066Z,98895.22
2022-10-06T16:27:33.338Z,98896.91
2022-10-06T16:30:02.070Z,98903.16
2022-10-06T16:32:33.468Z,98902.69
2022-10-06T16:35:01.870Z,98902.69
2022-10-06T16:37:30.402Z,98897.69
2022-10-06T16:39:58.860Z,98905.19
2022-10-06T16:42:30.270Z,98908.28
2022-10-06T16:44:58.814Z,98907.81
2022-10-06T16:47:26.652Z,98907.19
2022-10-06T16:49:54.531Z,98910.28
2022-10-06T16:52:30.759Z,98917.75
2022-10-06T16:55:02.078Z,98915.66
2022-10-06T16:57:30.241Z,98917.06
2022-10-06T17:00:00.409Z,98914.09
2022-10-06T17:05:17.413Z,98914.09
2022-10-06T17:07:45.790Z,98914.69
2022-10-06T17:10:20.621Z,98915.03
2022-10-06T17:12:48.880Z,98919.00
2022-10-06T17:15:27.348Z,98919.00
2022-10-06T17:17:58.976Z,98917.72
2022-10-06T17:20:27.333Z,98927.25
2022-10-06T17:22:55.332Z,98925.75
2022-10-06T17:25:23.231Z,98922.41
2022-10-06T17:27:51.207Z,98923.44
2022-10-06T17:30:19.080Z,98930.50
2022-10-06T17:32:47.457Z,98932.56
2022-10-06T17:35:15.569Z,98932.75
2022-10-06T17:37:43.766Z,98930.28
2022-10-06T17:40:11.610Z,98937.75
2022-10-06T17:42:39.646Z,98927.94
2022-10-06T17:45:08.370Z,98934.19
2022-10-06T17:47:36.975Z,98935.22
2022-10-06T17:50:05.354Z,98937.09
2022-10-06T17:52:35.612Z,98945.41
2022-10-06T17:55:03.856Z,98944.34
2022-10-06T17:57:31.852Z,98928.34
2022-10-06T17:59:59.718Z,98930.59
2022-10-06T18:02:28.154Z,98934.50
2022-10-06T18:04:56.276Z,98932.84
2022-10-06T18:07:24.174Z,98945.06
2022-10-06T18:10:12.795Z,98939.84
2022-10-06T18:12:41.008Z,98926.78
2022-10-06T18:15:12.834Z,98929.31
2022-10-06T18:17:42.526Z,98928.63
2022-10-06T18:20:12.202Z,98930.69
2022-10-06T18:22:41.360Z,98936.03
2022-10-06T18:25:16.876Z,98921.88
2022-10-06T18:27:47.810Z,98922.91
2022-10-06T18:30:15.770Z,98916.47
2022-10-06T18:38:21.082Z,98908.00
2022-10-06T18:41:02.312Z,98918.13
2022-10-06T18:43:31.123Z,98907.91
2022-10-06T18:46:22.067Z,98912.31
2022-10-06T18:48:58.822Z,98914.78
2022-10-06T18:51:33.994Z,98911.06
2022-10-06T18:54:06.697Z,98906.69
2022-10-06T18:56:38.179Z,98902.50
2022-10-06T18:59:13.158Z,98904.75
2022-10-06T19:01:44.914Z,98908.03
2022-10-06T19:04:16.850Z,98906.75
2022-10-06T19:06:50.080Z,98913.81
2022-10-06T19:09:21.130Z,98911.09
2022-10-06T19:11:56.579Z,98919.78
2022-10-06T19:14:37.975Z,98919.34
2022-10-06T19:17:13.782Z,98925.50
2022-10-06T19:19:51.225Z,98910.53
2022-10-06T19:22:23.909Z,98920.28
2022-10-06T19:24:52.340Z,98921.50
2022-10-06T19:27:25.585Z,98917.50
2022-10-06T19:29:56.638Z,98918.03
2022-10-06T19:32:32.154Z,98910.50
2022-10-06T19:35:00.754Z,98922.91
2022-10-06T19:37:31.253Z,98921.97
2022-10-06T19:39:59.019Z,98920.66
2022-10-06T19:42:45.738Z,98916.38
2022-10-06T19:45:15.476Z,98919.84
2022-10-06T19:47:44.825Z,98926.16
2022-10-06T19:50:13.607Z,98919.63
2022-10-06T19:52:42.047Z,98913.69
2022-10-06T19:55:09.804Z,98913.59
2022-10-06T19:57:37.633Z,98922.22
2022-10-06T20:00:06.945Z,98916.75
2022-10-06T20:02:43.299Z,98913.94
2022-10-06T20:05:15.163Z,98927.63
2022-10-06T20:07:45.553Z,98928.38
2022-10-06T20:10:15.039Z,98918.66
2022-10-06T20:12:42.829Z,98918.56
2022-10-06T20:15:12.765Z,98913.91
2022-10-06T20:17:42.349Z,98913.78
2022-10-06T20:20:11.374Z,98912.47
2022-10-06T20:22:39.401Z,98912.63
2022-10-06T20:25:08.035Z,98915.34
2022-10-06T20:27:36.759Z,98907.25
2022-10-06T20:30:05.179Z,98911.97
2022-10-06T20:32:32.917Z,98914.69
2022-10-06T20:35:01.927Z,98911.63
2022-10-06T20:37:29.700Z,98912.94
2022-10-06T20:40:16.225Z,98912.38
2022-10-06T20:42:49.166Z,98912.03
2022-10-06T20:45:17.126Z,98905.44
2022-10-06T20:47:45.654Z,98907.31
2022-10-06T20:50:14.303Z,98909.81
2022-10-06T20:52:42.058Z,98908.78
2022-10-06T20:55:09.870Z,98904.25
2022-10-06T20:57:37.753Z,98905.09
2022-10-06T21:00:07.501Z,98897.00
2022-10-06T21:02:35.485Z,98899.69
2022-10-06T21:05:03.512Z,98900.53
2022-10-06T21:07:31.458Z,98907.63
2022-10-06T21:09:59.306Z,98897.19
2022-10-06T21:12:27.407Z,98899.22
2022-10-06T21:14:57.047Z,98900.03
2022-10-06T21:17:25.032Z,98898.22
2022-10-06T21:19:53.137Z,98900.03
2022-10-06T21:22:21.073Z,98900.03
2022-10-06T21:24:48.945Z,98895.69
2022-10-06T21:27:18.505Z,98895.03
2022-10-06T21:29:46.425Z,98896.59
2022-10-06T21:32:14.323Z,98899.47
2022-10-06T21:34:42.172Z,98894.63
2022-10-06T21:37:10.548Z,98884.53
2022-10-06T21:39:38.373Z,98889.47
2022-10-06T21:42:06.251Z,98883.59
2022-10-06T21:44:34.096Z,98880.91
2022-10-06T21:47:02.783Z,98876.91
2022-10-06T21:49:30.814Z,98880.44
2022-10-06T21:52:03.613Z,98877.34
2022-10-06T21:54:31.857Z,98865.56
2022-10-06T21:56:59.786Z,98875.03
2022-10-06T21:59:28.198Z,98865.91
2022-10-06T22:01:56.962Z,98866.78
2022-10-06T22:04:25.209Z,98871.50
2022-10-06T22:06:53.097Z,98864.91
2022-10-06T22:09:22.134Z,98864.38
2022-10-06T22:11:50.354Z,98864.56
2022-10-06T22:14:19.581Z,98853.09
2022-10-06T22:16:47.510Z,98859.34
2022-10-06T22:19:16.526Z,98854.44
2022-10-06T22:21:48.041Z,98855.09
2022-10-06T22:24:21.190Z,98855.94
2022-10-06T22:26:50.093Z,98850.88
2022-10-06T22:29:20.185Z,98846.53
2022-10-06T22:31:49.099Z,98847.91
2022-10-06T22:34:20.749Z,98844.19
2022-10-06T22:36:49.033Z,98850.22
2022-10-06T22:39:17.744Z,98841.13
2022-10-06T22:41:45.690Z,98834.72
2022-10-06T22:44:13.744Z,98833.53
2022-10-06T22:46:41.743Z,98829.16
2022-10-06T22:49:09.893Z,98831.00
2022-10-06T22:51:37.735Z,98820.59
2022-10-06T22:54:05.669Z,98821.63
2022-10-06T22:56:34.852Z,98814.72
2022-10-06T22:59:03.134Z,98815.09
2022-10-06T23:01:31.415Z,98806.53
2022-10-06T23:03:59.453Z,98801.50
2022-10-06T23:06:29.887Z,98803.34
2022-10-06T23:08:58.318Z,98800.47
2022-10-06T23:11:26.687Z,98801.31
2022-10-06T23:13:54.940Z,98801.16
2022-10-06T23:16:23.149Z,98801.97
2022-10-06T23:18:51.319Z,98791.84
2022-10-06T23:21:24.017Z,98785.63
2022-10-06T23:23:56.017Z,98780.88
2022-10-06T23:26:24.798Z,98781.94
2022-10-06T23:28:58.698Z,98781.94
2022-10-06T23:31:29.144Z,98780.88
2022-10-06T23:33:57.831Z,98780.06
2022-10-06T23:36:25.891Z,98779.22
2022-10-06T23:38:53.770Z,98779.41
2022-10-06T23:41:21.678Z,98773.19
2022-10-06T23:43:49.844Z,98775.88
2022-10-06T23:46:18.797Z,98780.59
2022-10-06T23:48:46.770Z,98783.50
2022-10-06T23:51:15.670Z,98784.50
2022-10-06T23:53:44.535Z,98779.28
2022-10-06T23:56:13.092Z,98781.81
2022-10-06T23:58:42.649Z,98774.53
